sensor_id;sensor_type;location;lat;lon;timestamp;pressure;altitude;pressure_sealevel;temperature;humidity
51249;BME280;39642;47.556;18.728;2024-03-02T00:00:22;98956.63;;;21.49;41.73
51249;BME280;39642;47.556;18.728;2024-03-02T00:02:49;98960.09;;;21.49;41.75
51249;BME280;39642;47.556;18.728;2024-03-02T00:05:19;98951.31;;;21.49;41.73
51249;BME280;39642;47.556;18.728;2024-03-02T00:07:52;98950.50;;;21.48;41.73
51249;BME280;39642;47.556;18.728;2024-03-02T00:10:26;98946.88;;;21.49;41.65
51249;BME280;39642;47.556;18.728;2024-03-02T00:12:57;98948.69;;;21.49;41.72
51249;BME280;39642;47.556;18.728;2024-03-02T00:18:04;98960.22;;;21.48;41.69
51249;BME280;39642;47.556;18.728;2024-03-02T00:20:31;98943.47;;;21.47;41.62
51249;BME280;39642;47.556;18.728;2024-03-02T00:23:03;98941.66;;;21.48;41.65
51249;BME280;39642;47.556;18.728;2024-03-02T00:25:41;98932.88;;;21.47;41.63
51249;BME280;39642;47.556;18.728;2024-03-02T00:28:19;98928.44;;;21.48;41.62
51249;BME280;39642;47.556;18.728;2024-03-02T00:31:04;98928.56;;;21.46;41.61
51249;BME280;39642;47.556;18.728;2024-03-02T00:33:35;98926.75;;;21.47;41.62
51249;BME280;39642;47.556;18.728;2024-03-02T00:36:02;98926.75;;;21.47;41.62
51249;BME280;39642;47.556;18.728;2024-03-02T00:38:33;98932.06;;;21.47;41.64
51249;BME280;39642;47.556;18.728;2024-03-02T00:41:04;98930.34;;;21.46;41.67
51249;BME280;39642;47.556;18.728;2024-03-02T00:46:05;98936.50;;;21.46;41.53
51249;BME280;39642;47.556;18.728;2024-03-02T00:48:30;98942.66;;;21.47;41.48
51249;BME280;39642;47.556;18.728;2024-03-02T00:51:03;98942.66;;;21.47;41.53
51249;BME280;39642;47.556;18.728;2024-03-02T00:53:32;98936.38;;;21.48;41.51
51249;BME280;39642;47.556;18.728;2024-03-02T00:55:59;98932.88;;;21.47;41.52
51249;BME280;39642;47.556;18.728;2024-03-02T00:58:26;98935.53;;;21.47;41.46
51249;BME280;39642;47.556;18.728;2024-03-02T01:00:52;98930.25;;;21.47;41.46
51249;BME280;39642;47.556;18.728;2024-03-02T01:03:18;98937.25;;;21.48;41.47
51249;BME280;39642;47.556;18.728;2024-03-02T01:05:45;98933.72;;;21.48;41.43
51249;BME280;39642;47.556;18.728;2024-03-02T01:08:11;98938.91;;;21.49;41.40
51249;BME280;39642;47.556;18.728;2024-03-02T01:10:37;98940.72;;;21.49;41.39
51249;BME280;39642;47.556;18.728;2024-03-02T01:13:03;98932.78;;;21.49;41.38
51249;BME280;39642;47.556;18.728;2024-03-02T01:15:29;98936.28;;;21.49;41.36
51249;BME280;39642;47.556;18.728;2024-03-02T01:17:55;98934.59;;;21.48;41.36
51249;BME280;39642;47.556;18.728;2024-03-02T01:20:21;98934.59;;;21.48;41.35
51249;BME280;39642;47.556;18.728;2024-03-02T01:22:47;98929.31;;;21.48;41.33
51249;BME280;39642;47.556;18.728;2024-03-02T01:25:13;98934.59;;;21.48;41.32
51249;BME280;39642;47.556;18.728;2024-03-02T01:27:39;98935.44;;;21.49;41.27
51249;BME280;39642;47.556;18.728;2024-03-02T01:30:06;98927.47;;;21.49;41.27
51249;BME280;39642;47.556;18.728;2024-03-02T01:32:32;98926.66;;;21.48;41.24
51249;BME280;39642;47.556;18.728;2024-03-02T01:34:58;98921.34;;;21.48;41.23
51249;BME280;39642;47.556;18.728;2024-03-02T01:37:23;98917.00;;;21.47;41.28
51249;BME280;39642;47.556;18.728;2024-03-02T01:39:49;98923.12;;;21.48;41.23
51249;BME280;39642;47.556;18.728;2024-03-02T01:42:15;98911.69;;;21.47;41.23
51249;BME280;39642;47.556;18.728;2024-03-02T01:44:41;98918.69;;;21.48;41.29
51249;BME280;39642;47.556;18.728;2024-03-02T01:47:07;98918.81;;;21.47;41.22
51249;BME280;39642;47.556;18.728;2024-03-02T01:49:33;98914.34;;;21.47;41.28
51249;BME280;39642;47.556;18.728;2024-03-02T01:51:59;98916.16;;;21.47;41.27
51249;BME280;39642;47.556;18.728;2024-03-02T01:54:25;98917.00;;;21.47;41.23
51249;BME280;39642;47.556;18.728;2024-03-02T01:56:51;98917.00;;;21.47;41.22
51249;BME280;39642;47.556;18.728;2024-03-02T01:59:17;98909.88;;;21.48;41.20
51249;BME280;39642;47.556;18.728;2024-03-02T02:01:43;98906.41;;;21.47;41.15
51249;BME280;39642;47.556;18.728;2024-03-02T02:04:09;98917.00;;;21.47;41.15
51249;BME280;39642;47.556;18.728;2024-03-02T02:06:35;98909.06;;;21.47;41.15
51249;BME280;39642;47.556;18.728;2024-03-02T02:09:01;98916.06;;;21.48;41.16
51249;BME280;39642;47.556;18.728;2024-03-02T02:11:27;98912.44;;;21.49;41.09
51249;BME280;39642;47.556;18.728;2024-03-02T02:13:53;98911.59;;;21.49;41.10
51249;BME280;39642;47.556;18.728;2024-03-02T02:16:21;98912.44;;;21.49;41.13
51249;BME280;39642;47.556;18.728;2024-03-02T02:18:47;98907.97;;;21.50;41.08
51249;BME280;39642;47.556;18.728;2024-03-02T02:21:13;98921.22;;;21.50;41.09
51249;BME280;39642;47.556;18.728;2024-03-02T02:23:39;98924.84;;;21.49;41.13
51249;BME280;39642;47.556;18.728;2024-03-02T02:26:04;98930.97;;;21.49;41.06
51249;BME280;39642;47.556;18.728;2024-03-02T02:28:30;98941.56;;;21.49;41.10
51249;BME280;39642;47.556;18.728;2024-03-02T02:30:56;98943.38;;;21.49;41.07
51249;BME280;39642;47.556;18.728;2024-03-02T02:33:22;98949.50;;;21.49;40.99
51249;BME280;39642;47.556;18.728;2024-03-02T02:35:48;98942.53;;;21.48;41.07
51249;BME280;39642;47.556;18.728;2024-03-02T02:38:14;98948.69;;;21.49;41.00
51249;BME280;39642;47.556;18.728;2024-03-02T02:40:40;98949.63;;;21.48;41.04
51249;BME280;39642;47.556;18.728;2024-03-02T02:43:06;98954.91;;;21.48;41.04
51249;BME280;39642;47.556;18.728;2024-03-02T02:45:32;98955.78;;;21.48;41.06
51249;BME280;39642;47.556;18.728;2024-03-02T02:47:58;98952.25;;;21.48;41.03
51249;BME280;39642;47.556;18.728;2024-03-02T02:50:24;98952.25;;;21.48;41.03
51249;BME280;39642;47.556;18.728;2024-03-02T02:52:50;98952.25;;;21.48;41.03
51249;BME280;39642;47.556;18.728;2024-03-02T02:55:16;98954.06;;;21.47;40.97
51249;BME280;39642;47.556;18.728;2024-03-02T02:57:42;98956.72;;;21.47;40.95
51249;BME280;39642;47.556;18.728;2024-03-02T03:00:11;98946.12;;;21.47;40.93
51249;BME280;39642;47.556;18.728;2024-03-02T03:02:41;98941.81;;;21.46;40.96
51249;BME280;39642;47.556;18.728;2024-03-02T03:05:11;98948.78;;;21.47;40.97
51249;BME280;39642;47.556;18.728;2024-03-02T03:07:42;98940.00;;;21.47;40.99
51249;BME280;39642;47.556;18.728;2024-03-02T03:10:09;98938.19;;;21.47;40.87
51249;BME280;39642;47.556;18.728;2024-03-02T03:12:36;98942.66;;;21.47;40.94
51249;BME280;39642;47.556;18.728;2024-03-02T03:15:03;98934.69;;;21.47;40.93
51249;BME280;39642;47.556;18.728;2024-03-02T03:17:30;98933.87;;;21.46;40.93
51249;BME280;39642;47.556;18.728;2024-03-02T03:19:56;98942.66;;;21.47;40.85
51249;BME280;39642;47.556;18.728;2024-03-02T03:22:22;98942.75;;;21.45;40.95
51249;BME280;39642;47.556;18.728;2024-03-02T03:24:47;98947.94;;;21.47;40.89
51249;BME280;39642;47.556;18.728;2024-03-02T03:27:13;98947.09;;;21.46;40.86
51249;BME280;39642;47.556;18.728;2024-03-02T03:29:39;98945.28;;;21.47;40.86
51249;BME280;39642;47.556;18.728;2024-03-02T03:32:05;98941.81;;;21.46;40.89
51249;BME280;39642;47.556;18.728;2024-03-02T03:34:33;98942.75;;;21.45;40.94
51249;BME280;39642;47.556;18.728;2024-03-02T03:36:59;98946.25;;;21.46;40.86
51249;BME280;39642;47.556;18.728;2024-03-02T03:39:25;98942.66;;;21.47;40.81
51249;BME280;39642;47.556;18.728;2024-03-02T03:41:51;98944.47;;;21.46;40.93
51249;BME280;39642;47.556;18.728;2024-03-02T03:44:16;98944.47;;;21.46;40.88
51249;BME280;39642;47.556;18.728;2024-03-02T03:46:42;98949.75;;;21.46;40.86
51249;BME280;39642;47.556;18.728;2024-03-02T03:49:08;98947.09;;;21.46;40.89
51249;BME280;39642;47.556;18.728;2024-03-02T03:51:34;98942.75;;;21.45;40.92
51249;BME280;39642;47.556;18.728;2024-03-02T03:54:01;98948.06;;;21.45;40.88
51249;BME280;39642;47.556;18.728;2024-03-02T03:56:27;98948.87;;;21.46;40.85
51249;BME280;39642;47.556;18.728;2024-03-02T03:58:53;98948.06;;;21.45;40.83
51249;BME280;39642;47.556;18.728;2024-03-02T04:01:19;98953.34;;;21.45;40.81
51249;BME280;39642;47.556;18.728;2024-03-02T04:03:45;98950.69;;;21.45;40.82
51249;BME280;39642;47.556;18.728;2024-03-02T04:06:11;98950.69;;;21.45;40.85
51249;BME280;39642;47.556;18.728;2024-03-02T04:08:36;98949.87;;;21.45;40.80
51249;BME280;39642;47.556;18.728;2024-03-02T04:11:02;98943.72;;;21.44;40.84
51249;BME280;39642;47.556;18.728;2024-03-02T04:13:29;98957.81;;;21.45;40.82
51249;BME280;39642;47.556;18.728;2024-03-02T04:15:55;98962.28;;;21.44;40.87
51249;BME280;39642;47.556;18.728;2024-03-02T04:18:21;98955.16;;;21.45;40.82
51249;BME280;39642;47.556;18.728;2024-03-02T04:20:47;98955.16;;;21.45;40.88
51249;BME280;39642;47.556;18.728;2024-03-02T04:23:13;98960.47;;;21.45;40.83
51249;BME280;39642;47.556;18.728;2024-03-02T04:25:39;98968.41;;;21.45;40.80
51249;BME280;39642;47.556;18.728;2024-03-02T04:28:05;98970.22;;;21.44;40.82
51249;BME280;39642;47.556;18.728;2024-03-02T04:30:30;98972.84;;;21.44;40.81
51249;BME280;39642;47.556;18.728;2024-03-02T04:32:56;98973.69;;;21.45;40.75
51249;BME280;39642;47.556;18.728;2024-03-02T04:35:22;98976.34;;;21.45;40.75
51249;BME280;39642;47.556;18.728;2024-03-02T04:37:48;98985.13;;;21.45;40.75
51249;BME280;39642;47.556;18.728;2024-03-02T04:40:14;98979.84;;;21.45;40.70
51249;BME280;39642;47.556;18.728;2024-03-02T04:42:40;98973.69;;;21.45;40.71
51249;BME280;39642;47.556;18.728;2024-03-02T04:45:06;98975.50;;;21.44;40.79
51249;BME280;39642;47.556;18.728;2024-03-02T04:47:32;98980.81;;;21.44;40.71
51249;BME280;39642;47.556;18.728;2024-03-02T04:49:58;98986.09;;;21.44;40.73
51249;BME280;39642;47.556;18.728;2024-03-02T04:52:24;98979.00;;;21.45;40.64
51249;BME280;39642;47.556;18.728;2024-03-02T04:54:50;98986.94;;;21.45;40.69
51249;BME280;39642;47.556;18.728;2024-03-02T04:57:34;98981.66;;;21.45;40.69
51249;BME280;39642;47.556;18.728;2024-03-02T05:00:01;98988.75;;;21.44;40.68
51249;BME280;39642;47.556;18.728;2024-03-02T05:02:26;98986.94;;;21.45;40.63
51249;BME280;39642;47.556;18.728;2024-03-02T05:04:52;98986.94;;;21.45;40.69
51249;BME280;39642;47.556;18.728;2024-03-02T05:07:18;98990.44;;;21.45;40.67
51249;BME280;39642;47.556;18.728;2024-03-02T05:09:44;98994.87;;;21.45;40.66
51249;BME280;39642;47.556;18.728;2024-03-02T05:12:10;98993.06;;;21.45;40.67
51249;BME280;39642;47.556;18.728;2024-03-02T05:14:36;98993.91;;;21.46;40.66
51249;BME280;39642;47.556;18.728;2024-03-02T05:17:03;98993.91;;;21.46;40.70
51249;BME280;39642;47.556;18.728;2024-03-02T05:19:29;98990.44;;;21.45;40.63
51249;BME280;39642;47.556;18.728;2024-03-02T05:21:55;98997.53;;;21.45;40.63
51249;BME280;39642;47.556;18.728;2024-03-02T05:24:20;98993.06;;;21.45;40.66
51249;BME280;39642;47.556;18.728;2024-03-02T05:26:46;99002.84;;;21.45;40.67
51249;BME280;39642;47.556;18.728;2024-03-02T05:29:12;98995.72;;;21.45;40.63
51249;BME280;39642;47.556;18.728;2024-03-02T05:31:38;98998.38;;;21.45;40.66
51249;BME280;39642;47.556;18.728;2024-03-02T05:34:04;99004.50;;;21.46;40.67
51249;BME280;39642;47.556;18.728;2024-03-02T05:36:31;99001.84;;;21.46;40.58
51249;BME280;39642;47.556;18.728;2024-03-02T05:38:57;98998.38;;;21.45;40.60
51249;BME280;39642;47.556;18.728;2024-03-02T05:41:23;98999.22;;;21.46;40.62
51249;BME280;39642;47.556;18.728;2024-03-02T05:43:49;99001.03;;;21.45;40.60
51249;BME280;39642;47.556;18.728;2024-03-02T05:46:15;99003.66;;;21.45;40.56
51249;BME280;39642;47.556;18.728;2024-03-02T05:48:41;98998.38;;;21.45;40.60
51249;BME280;39642;47.556;18.728;2024-03-02T05:51:07;99001.84;;;21.46;40.58
51249;BME280;39642;47.556;18.728;2024-03-02T05:53:32;99003.56;;;21.47;40.57
51249;BME280;39642;47.556;18.728;2024-03-02T05:55:59;99006.22;;;21.47;40.59
51249;BME280;39642;47.556;18.728;2024-03-02T05:58:25;99001.03;;;21.45;40.58
51249;BME280;39642;47.556;18.728;2024-03-02T06:01:08;99000.19;;;21.45;40.57
51249;BME280;39642;47.556;18.728;2024-03-02T06:03:34;99001.03;;;21.45;40.52
51249;BME280;39642;47.556;18.728;2024-03-02T06:06:00;99008.03;;;21.46;40.58
51249;BME280;39642;47.556;18.728;2024-03-02T06:08:29;99008.03;;;21.46;40.59
51249;BME280;39642;47.556;18.728;2024-03-02T06:10:55;99006.31;;;21.45;40.60
51249;BME280;39642;47.556;18.728;2024-03-02T06:13:22;99008.88;;;21.47;40.57
51249;BME280;39642;47.556;18.728;2024-03-02T06:15:47;99008.88;;;21.47;40.48
51249;BME280;39642;47.556;18.728;2024-03-02T06:18:13;98999.22;;;21.46;40.59
51249;BME280;39642;47.556;18.728;2024-03-02T06:20:39;99005.38;;;21.46;40.64
51249;BME280;39642;47.556;18.728;2024-03-02T06:23:05;99004.50;;;21.46;40.65
51249;BME280;39642;47.556;18.728;2024-03-02T06:25:31;99022.94;;;21.47;40.62
51249;BME280;39642;47.556;18.728;2024-03-02T06:27:57;99015.97;;;21.46;40.57
51249;BME280;39642;47.556;18.728;2024-03-02T06:30:23;99014.16;;;21.47;40.59
51249;BME280;39642;47.556;18.728;2024-03-02T06:32:49;99030.16;;;21.45;40.53
51249;BME280;39642;47.556;18.728;2024-03-02T06:35:15;99031.88;;;21.46;40.50
51249;BME280;39642;47.556;18.728;2024-03-02T06:37:41;99031.88;;;21.46;40.50
51249;BME280;39642;47.556;18.728;2024-03-02T06:40:08;99038.84;;;21.47;40.51
51249;BME280;39642;47.556;18.728;2024-03-02T06:42:35;99040.66;;;21.47;40.51
51249;BME280;39642;47.556;18.728;2024-03-02T06:45:02;99040.66;;;21.47;40.46
51249;BME280;39642;47.556;18.728;2024-03-02T06:47:28;99044.12;;;21.47;40.47
51249;BME280;39642;47.556;18.728;2024-03-02T06:49:54;99042.47;;;21.46;40.45
51249;BME280;39642;47.556;18.728;2024-03-02T06:52:20;99041.47;;;21.47;40.50
51249;BME280;39642;47.556;18.728;2024-03-02T06:54:46;99046.78;;;21.47;40.48
51249;BME280;39642;47.556;18.728;2024-03-02T06:57:12;99044.97;;;21.48;40.47
51249;BME280;39642;47.556;18.728;2024-03-02T06:59:38;99046.69;;;21.49;40.41
51249;BME280;39642;47.556;18.728;2024-03-02T07:02:04;99042.31;;;21.48;40.42
51249;BME280;39642;47.556;18.728;2024-03-02T07:04:30;99047.50;;;21.49;40.35
51249;BME280;39642;47.556;18.728;2024-03-02T07:06:56;99044.88;;;21.49;40.42
51249;BME280;39642;47.556;18.728;2024-03-02T07:09:22;99050.16;;;21.49;40.29
51249;BME280;39642;47.556;18.728;2024-03-02T07:11:49;99052.72;;;21.51;40.28
51249;BME280;39642;47.556;18.728;2024-03-02T07:14:15;99053.53;;;21.51;40.32
51249;BME280;39642;47.556;18.728;2024-03-02T07:16:41;99048.25;;;21.51;40.28
51249;BME280;39642;47.556;18.728;2024-03-02T07:19:09;99056.19;;;21.51;40.26
51249;BME280;39642;47.556;18.728;2024-03-02T07:21:35;99052.56;;;21.52;40.25
51249;BME280;39642;47.556;18.728;2024-03-02T07:24:01;99055.22;;;21.52;40.38
51249;BME280;39642;47.556;18.728;2024-03-02T07:26:30;99051.62;;;21.53;40.30
51249;BME280;39642;47.556;18.728;2024-03-02T07:28:57;99051.62;;;21.53;40.23
51249;BME280;39642;47.556;18.728;2024-03-02T07:31:23;99049.81;;;21.54;40.34
51249;BME280;39642;47.556;18.728;2024-03-02T07:33:49;99052.47;;;21.54;40.32
51249;BME280;39642;47.556;18.728;2024-03-02T07:36:15;99050.66;;;21.54;40.32
51249;BME280;39642;47.556;18.728;2024-03-02T07:38:41;99053.31;;;21.54;40.32
51249;BME280;39642;47.556;18.728;2024-03-02T07:41:08;99050.66;;;21.54;40.34
51249;BME280;39642;47.556;18.728;2024-03-02T07:43:34;99055.13;;;21.54;40.23
51249;BME280;39642;47.556;18.728;2024-03-02T07:46:00;99054.19;;;21.55;40.36
51249;BME280;39642;47.556;18.728;2024-03-02T07:48:26;99057.66;;;21.55;40.37
51249;BME280;39642;47.556;18.728;2024-03-02T07:50:52;99055.97;;;21.54;40.32
51249;BME280;39642;47.556;18.728;2024-03-02T07:53:18;99059.47;;;21.55;40.36
51249;BME280;39642;47.556;18.728;2024-03-02T07:55:44;99057.66;;;21.55;40.40
51249;BME280;39642;47.556;18.728;2024-03-02T07:58:10;99061.25;;;21.54;40.41
51249;BME280;39642;47.556;18.728;2024-03-02T08:00:39;99056.94;;;21.53;40.38
51249;BME280;39642;47.556;18.728;2024-03-02T08:03:06;99053.44;;;21.53;40.44
51249;BME280;39642;47.556;18.728;2024-03-02T08:05:32;99061.25;;;21.54;40.38
51249;BME280;39642;47.556;18.728;2024-03-02T08:07:58;99062.22;;;21.53;40.41
51249;BME280;39642;47.556;18.728;2024-03-02T08:10:24;99065.72;;;21.54;40.44
51249;BME280;39642;47.556;18.728;2024-03-02T08:12:50;99059.56;;;21.53;40.46
51249;BME280;39642;47.556;18.728;2024-03-02T08:15:15;99064.88;;;21.53;40.44
51249;BME280;39642;47.556;18.728;2024-03-02T08:17:41;99065.81;;;21.52;40.49
51249;BME280;39642;47.556;18.728;2024-03-02T08:20:11;99065.81;;;21.52;40.48
51249;BME280;39642;47.556;18.728;2024-03-02T08:22:38;99063.16;;;21.52;40.45
51249;BME280;39642;47.556;18.728;2024-03-02T08:25:04;99066.78;;;21.51;40.42
51249;BME280;39642;47.556;18.728;2024-03-02T08:27:31;99067.72;;;21.50;40.47
51249;BME280;39642;47.556;18.728;2024-03-02T08:29:57;99076.53;;;21.51;40.52
51249;BME280;39642;47.556;18.728;2024-03-02T08:32:23;99073.91;;;21.51;40.48
51249;BME280;39642;47.556;18.728;2024-03-02T08:34:49;99078.31;;;21.50;40.47
51249;BME280;39642;47.556;18.728;2024-03-02T08:37:15;99077.50;;;21.50;40.51
51249;BME280;39642;47.556;18.728;2024-03-02T08:39:41;99074.00;;;21.49;40.50
51249;BME280;39642;47.556;18.728;2024-03-02T08:42:07;99074.00;;;21.49;40.49
51249;BME280;39642;47.556;18.728;2024-03-02T08:44:33;99065.22;;;21.49;40.49
51249;BME280;39642;47.556;18.728;2024-03-02T08:46:59;99074.84;;;21.50;40.48
51249;BME280;39642;47.556;18.728;2024-03-02T08:49:25;99072.19;;;21.50;40.47
51249;BME280;39642;47.556;18.728;2024-03-02T08:51:51;99074.97;;;21.48;40.48
51249;BME280;39642;47.556;18.728;2024-03-02T08:54:21;99072.31;;;21.48;40.49
51249;BME280;39642;47.556;18.728;2024-03-02T08:56:50;99068.69;;;21.49;40.48
51249;BME280;39642;47.556;18.728;2024-03-02T08:59:16;99071.34;;;21.49;40.48
51249;BME280;39642;47.556;18.728;2024-03-02T09:01:42;99073.03;;;21.50;40.41
51249;BME280;39642;47.556;18.728;2024-03-02T09:04:08;99069.44;;;21.51;40.40
51249;BME280;39642;47.556;18.728;2024-03-02T09:06:36;99074.72;;;21.51;40.33
51249;BME280;39642;47.556;18.728;2024-03-02T09:09:15;99077.38;;;21.51;40.40
51249;BME280;39642;47.556;18.728;2024-03-02T09:11:40;99079.19;;;21.51;40.47
51249;BME280;39642;47.556;18.728;2024-03-02T09:14:06;99079.06;;;21.52;40.53
51249;BME280;39642;47.556;18.728;2024-03-02T09:16:32;99070.38;;;21.50;40.50
51249;BME280;39642;47.556;18.728;2024-03-02T09:18:58;99084.34;;;21.52;40.48
51249;BME280;39642;47.556;18.728;2024-03-02T09:21:24;99085.22;;;21.53;40.54
51249;BME280;39642;47.556;18.728;2024-03-02T09:23:51;99079.06;;;21.52;40.48
51249;BME280;39642;47.556;18.728;2024-03-02T09:26:17;99080.78;;;21.53;40.46
51249;BME280;39642;47.556;18.728;2024-03-02T09:28:43;99087.00;;;21.52;40.50
51249;BME280;39642;47.556;18.728;2024-03-02T09:31:09;99079.06;;;21.52;40.47
51249;BME280;39642;47.556;18.728;2024-03-02T09:33:35;99078.13;;;21.53;40.51
51249;BME280;39642;47.556;18.728;2024-03-02T09:36:01;99074.62;;;21.53;40.47
51249;BME280;39642;47.556;18.728;2024-03-02T09:38:27;99084.34;;;21.52;40.52
51249;BME280;39642;47.556;18.728;2024-03-02T09:40:53;99082.69;;;21.51;40.50
51249;BME280;39642;47.556;18.728;2024-03-02T09:43:19;99081.72;;;21.52;40.53
51249;BME280;39642;47.556;18.728;2024-03-02T09:45:45;99082.56;;;21.53;40.54
51249;BME280;39642;47.556;18.728;2024-03-02T09:48:11;99087.00;;;21.52;40.55
51249;BME280;39642;47.556;18.728;2024-03-02T09:50:37;99082.69;;;21.51;40.50
51249;BME280;39642;47.556;18.728;2024-03-02T09:53:03;99080.03;;;21.51;40.55
51249;BME280;39642;47.556;18.728;2024-03-02T09:55:30;99080.13;;;21.50;40.55
51249;BME280;39642;47.556;18.728;2024-03-02T09:57:56;99087.97;;;21.51;40.48
51249;BME280;39642;47.556;18.728;2024-03-02T10:00:22;99079.28;;;21.49;40.44
51249;BME280;39642;47.556;18.728;2024-03-02T10:02:47;99074.00;;;21.49;40.56
51249;BME280;39642;47.556;18.728;2024-03-02T10:05:23;99081.09;;;21.49;40.59
51249;BME280;39642;47.556;18.728;2024-03-02T10:07:59;99087.16;;;21.51;40.57
51249;BME280;39642;47.556;18.728;2024-03-02T10:10:35;99086.41;;;21.49;40.59
51249;BME280;39642;47.556;18.728;2024-03-02T10:13:05;99080.13;;;21.50;40.58
51249;BME280;39642;47.556;18.728;2024-03-02T10:15:31;99076.66;;;21.49;40.57
51249;BME280;39642;47.556;18.728;2024-03-02T10:17:57;99079.28;;;21.49;40.59
51249;BME280;39642;47.556;18.728;2024-03-02T10:20:24;99074.00;;;21.49;40.57
51249;BME280;39642;47.556;18.728;2024-03-02T10:22:51;99079.28;;;21.49;40.54
51249;BME280;39642;47.556;18.728;2024-03-02T10:25:33;99075.81;;;21.49;40.53
51249;BME280;39642;47.556;18.728;2024-03-02T10:28:00;99078.31;;;21.50;40.47
51249;BME280;39642;47.556;18.728;2024-03-02T10:30:27;99082.69;;;21.51;40.49
51249;BME280;39642;47.556;18.728;2024-03-02T10:32:54;99077.50;;;21.50;40.53
51249;BME280;39642;47.556;18.728;2024-03-02T10:35:21;99085.22;;;21.53;40.52
51249;BME280;39642;47.556;18.728;2024-03-02T10:37:49;99081.72;;;21.52;40.50
51249;BME280;39642;47.556;18.728;2024-03-02T10:40:16;99079.19;;;21.51;40.46
51249;BME280;39642;47.556;18.728;2024-03-02T10:42:42;99082.56;;;21.53;40.49
51249;BME280;39642;47.556;18.728;2024-03-02T10:45:12;99079.94;;;21.53;40.51
51249;BME280;39642;47.556;18.728;2024-03-02T10:47:38;99079.06;;;21.52;40.52
51249;BME280;39642;47.556;18.728;2024-03-02T10:50:05;99078.13;;;21.53;40.53
51249;BME280;39642;47.556;18.728;2024-03-02T10:52:35;99069.34;;;21.53;40.54
51249;BME280;39642;47.556;18.728;2024-03-02T10:55:01;99076.41;;;21.52;40.55
51249;BME280;39642;47.556;18.728;2024-03-02T10:57:58;99075.47;;;21.53;40.56
51249;BME280;39642;47.556;18.728;2024-03-02T11:00:25;99071.97;;;21.53;40.56
51249;BME280;39642;47.556;18.728;2024-03-02T11:03:05;99067.53;;;21.53;40.53
51249;BME280;39642;47.556;18.728;2024-03-02T11:05:34;99071.97;;;21.53;40.52
51249;BME280;39642;47.556;18.728;2024-03-02T11:08:11;99070.16;;;21.53;40.55
51249;BME280;39642;47.556;18.728;2024-03-02T11:10:45;99070.16;;;21.53;40.56
51249;BME280;39642;47.556;18.728;2024-03-02T11:13:14;99071.97;;;21.53;40.59
51249;BME280;39642;47.556;18.728;2024-03-02T11:15:43;99071.13;;;21.52;40.57
51249;BME280;39642;47.556;18.728;2024-03-02T11:18:10;99067.62;;;21.52;40.58
51249;BME280;39642;47.556;18.728;2024-03-02T11:20:38;99066.78;;;21.51;40.58
51249;BME280;39642;47.556;18.728;2024-03-02T11:23:08;99066.78;;;21.51;40.60
51249;BME280;39642;47.556;18.728;2024-03-02T11:25:35;99063.16;;;21.52;40.59
51249;BME280;39642;47.556;18.728;2024-03-02T11:28:03;99058.84;;;21.51;40.62
51249;BME280;39642;47.556;18.728;2024-03-02T11:33:01;99063.16;;;21.52;40.57
51249;BME280;39642;47.556;18.728;2024-03-02T11:35:37;99056.28;;;21.50;40.56
51249;BME280;39642;47.556;18.728;2024-03-02T11:38:04;99053.53;;;21.51;40.47
51249;BME280;39642;47.556;18.728;2024-03-02T11:40:30;99060.66;;;21.51;40.55
51249;BME280;39642;47.556;18.728;2024-03-02T11:42:59;99053.53;;;21.51;40.48
51249;BME280;39642;47.556;18.728;2024-03-02T11:45:26;99053.53;;;21.51;40.52
51249;BME280;39642;47.556;18.728;2024-03-02T11:47:56;99055.22;;;21.52;40.56
51249;BME280;39642;47.556;18.728;2024-03-02T11:50:39;99050.91;;;21.51;40.54
51249;BME280;39642;47.556;18.728;2024-03-02T11:53:07;99055.22;;;21.52;40.48
51249;BME280;39642;47.556;18.728;2024-03-02T11:55:38;99057.88;;;21.52;40.56
51249;BME280;39642;47.556;18.728;2024-03-02T11:58:05;99052.56;;;21.52;40.49
51249;BME280;39642;47.556;18.728;2024-03-02T12:00:31;99056.09;;;21.53;40.49
51249;BME280;39642;47.556;18.728;2024-03-02T12:03:01;99051.62;;;21.53;40.46
51249;BME280;39642;47.556;18.728;2024-03-02T12:05:27;99052.47;;;21.54;40.43
51249;BME280;39642;47.556;18.728;2024-03-02T12:07:57;99056.94;;;21.53;40.47
51249;BME280;39642;47.556;18.728;2024-03-02T12:10:26;99050.66;;;21.54;40.51
51249;BME280;39642;47.556;18.728;2024-03-02T12:13:00;99047.16;;;21.54;40.53
51249;BME280;39642;47.556;18.728;2024-03-02T12:15:27;99052.38;;;21.55;40.54
51249;BME280;39642;47.556;18.728;2024-03-02T12:17:57;99047.16;;;21.54;40.19
51249;BME280;39642;47.556;18.728;2024-03-02T12:20:25;99048.97;;;21.53;40.67
51249;BME280;39642;47.556;18.728;2024-03-02T12:22:52;99042.22;;;21.49;40.81
51249;BME280;39642;47.556;18.728;2024-03-02T12:25:19;99042.22;;;21.49;40.91
51249;BME280;39642;47.556;18.728;2024-03-02T12:27:46;99047.50;;;21.49;40.91
51249;BME280;39642;47.556;18.728;2024-03-02T12:30:13;99046.69;;;21.49;40.61
51249;BME280;39642;47.556;18.728;2024-03-02T12:32:42;99043.06;;;21.50;40.58
51249;BME280;39642;47.556;18.728;2024-03-02T12:35:10;99044.88;;;21.49;40.80
51249;BME280;39642;47.556;18.728;2024-03-02T12:37:48;99042.94;;;21.51;40.92
51249;BME280;39642;47.556;18.728;2024-03-02T12:40:15;99044.75;;;21.51;41.04
51249;BME280;39642;47.556;18.728;2024-03-02T12:42:45;99040.31;;;21.51;40.86
51249;BME280;39642;47.556;18.728;2024-03-02T12:45:12;99043.06;;;21.50;40.90
51249;BME280;39642;47.556;18.728;2024-03-02T12:47:39;99049.19;;;21.50;40.78
51249;BME280;39642;47.556;18.728;2024-03-02T12:50:06;99050.91;;;21.51;40.86
51249;BME280;39642;47.556;18.728;2024-03-02T12:52:33;99046.69;;;21.49;40.80
51249;BME280;39642;47.556;18.728;2024-03-02T12:55:01;99043.91;;;21.50;40.84
51249;BME280;39642;47.556;18.728;2024-03-02T12:57:29;99046.53;;;21.50;40.83